Time;durP1;ratioP1;P1;durP2;ratioP2;P2;SDS_P1;SDS_P2;PMS_P1;PMS_P2;Temp;Humidity;BMP_temperature;BMP_pressure;BME280_temperature;BME280_humidity;BME280_pressure;Samples;Min_cycle;Max_cycle;Signal;HPM_P1;HPM_P2
2024/02/17 00:02:24;;;;;;;;;;;8.40;99.90;;;;;;6122864;23;20101;-81
2024/02/17 00:04:50;;;;;;;0.57;0.57;;;8.40;99.90;;;;;;6098109;23;19956;-80
2024/02/17 00:07:16;;;;;;;1.15;1.05;;;8.30;99.90;;;;;;6121654;23;20357;-80
2024/02/17 00:09:42;;;;;;;0.85;0.82;;;8.40;99.90;;;;;;6122019;23;20476;-80
2024/02/17 00:12:09;;;;;;;2.58;2.38;;;8.40;99.90;;;;;;6098939;23;20138;-80
2024/02/17 00:14:35;;;;;;;1.42;1.33;;;8.30;99.90;;;;;;6122411;23;20018;-79
2024/02/17 00:17:05;;;;;;;0.47;0.47;;;8.30;99.90;;;;;;6122396;23;20149;-80
2024/02/17 00:19:31;;;;;;;0.90;0.90;;;8.30;99.90;;;;;;6123324;23;20435;-79
2024/02/17 00:21:57;;;;;;;1.08;0.98;;;8.30;99.90;;;;;;6147694;23;20041;-79
2024/02/17 00:24:24;;;;;;;1.20;0.60;;;8.30;99.90;;;;;;6122196;23;20107;-79
2024/02/17 00:26:50;;;;;;;;;;;8.30;99.90;;;;;;6123563;23;20018;-79
2024/02/17 00:29:16;;;;;;;0.50;0.50;;;8.30;99.90;;;;;;6099107;23;19927;-80
2024/02/17 00:31:47;;;;;;;0.68;0.68;;;8.30;99.90;;;;;;6098890;23;20101;-80
2024/02/17 00:34:14;;;;;;;0.43;0.43;;;8.30;99.90;;;;;;6096524;23;20017;-80
2024/02/17 00:36:40;;;;;;;0.50;0.50;;;8.30;99.90;;;;;;6096206;23;20032;-81
2024/02/17 00:39:05;;;;;;;0.60;0.60;;;8.30;99.90;;;;;;6098607;23;20418;-83
2024/02/17 00:41:31;;;;;;;0.60;0.60;;;8.30;99.90;;;;;;6122627;23;20096;-82
2024/02/17 00:43:57;;;;;;;0.50;0.50;;;8.30;99.90;;;;;;6097207;23;20096;-80
2024/02/17 00:46:23;;;;;;;0.45;0.45;;;8.40;99.90;;;;;;6099714;23;20444;-81
2024/02/17 00:48:48;;;;;;;0.77;0.77;;;8.40;99.90;;;;;;6101415;23;20017;-79
2024/02/17 00:51:15;;;;;;;2.38;2.15;;;8.20;99.90;;;;;;6153036;23;20534;-81
2024/02/17 00:53:45;;;;;;;0.70;0.70;;;8.20;99.90;;;;;;6099994;23;20638;-81
2024/02/17 00:56:14;;;;;;;50.13;3.80;;;8.10;99.90;;;;;;6078710;23;20020;-82
2024/02/17 00:58:40;;;;;;;1.15;1.15;;;8.10;99.90;;;;;;6152978;23;20060;-81
2024/02/17 01:01:06;;;;;;;0.40;0.40;;;8.10;99.90;;;;;;6127257;23;20404;-81
2024/02/17 01:03:32;;;;;;;0.50;0.50;;;8.00;99.90;;;;;;6126210;23;20025;-81
2024/02/17 01:05:57;;;;;;;1.13;0.73;;;8.00;99.90;;;;;;6101115;23;20321;-81
2024/02/17 01:08:23;;;;;;;1.40;1.02;;;8.10;99.90;;;;;;6126043;23;20021;-81
2024/02/17 01:10:49;;;;;;;0.55;0.55;;;8.10;99.90;;;;;;6151548;23;20337;-81
2024/02/17 01:13:15;;;;;;;0.50;0.50;;;8.10;99.90;;;;;;6150603;23;20027;-81
2024/02/17 01:15:40;;;;;;;0.80;0.80;;;8.00;99.90;;;;;;6100685;23;20496;-81
2024/02/17 01:18:07;;;;;;;1.60;1.50;;;8.00;99.90;;;;;;6126941;23;20084;-81
2024/02/17 01:20:33;;;;;;;1.85;1.38;;;8.00;99.90;;;;;;6155612;23;20045;-79
2024/02/17 01:22:59;;;;;;;0.43;0.43;;;7.90;99.90;;;;;;6125825;23;20025;-81
2024/02/17 01:25:25;;;;;;;0.45;0.45;;;7.80;99.90;;;;;;6103162;23;20024;-81
2024/02/17 01:27:52;;;;;;;0.47;0.47;;;7.80;99.90;;;;;;6101062;23;20590;-80
2024/02/17 01:30:17;;;;;;;0.57;0.57;;;7.80;99.90;;;;;;6127013;23;20017;-81
2024/02/17 01:32:43;;;;;;;0.60;0.60;;;7.70;99.90;;;;;;6101661;23;20033;-82
2024/02/17 01:35:09;;;;;;;0.40;0.40;;;7.70;99.90;;;;;;6126920;23;20088;-81
2024/02/17 01:37:35;;;;;;;1.70;1.60;;;7.70;99.90;;;;;;6127260;23;20028;-81
2024/02/17 01:40:01;;;;;;;0.40;0.40;;;7.70;99.90;;;;;;6152837;23;20018;-82
2024/02/17 01:42:26;;;;;;;0.40;0.40;;;7.80;99.90;;;;;;6100731;23;20013;-81
2024/02/17 01:44:52;;;;;;;0.80;0.70;;;7.80;99.90;;;;;;6126686;23;20108;-81
2024/02/17 01:47:20;;;;;;;0.60;0.60;;;7.80;99.90;;;;;;6127347;23;20013;-81
2024/02/17 01:49:46;;;;;;;2.25;2.05;;;7.40;99.90;;;;;;6153438;23;20025;-81
2024/02/17 01:52:12;;;;;;;;;;;7.80;99.90;;;;;;6153900;23;20009;-81
2024/02/17 01:54:38;;;;;;;0.63;0.63;;;7.80;99.90;;;;;;6126494;23;20002;-81
2024/02/17 01:57:04;;;;;;;;;;;7.80;99.90;;;;;;6080959;23;20017;-82
2024/02/17 01:59:30;;;;;;;0.52;0.52;;;7.80;99.90;;;;;;6078893;23;20334;-80
2024/02/17 02:01:58;;;;;;;0.50;0.50;;;7.80;99.90;;;;;;6103637;23;20021;-81
2024/02/17 02:04:24;;;;;;;0.40;0.40;;;7.90;99.90;;;;;;6129156;23;20045;-79
2024/02/17 02:06:51;;;;;;;0.88;0.60;;;7.90;99.90;;;;;;6153152;23;20018;-80
2024/02/17 02:09:23;;;;;;;0.50;0.50;;;7.90;99.90;;;;;;6125111;23;20009;-80
2024/02/17 02:11:53;;;;;;;0.50;0.50;;;7.90;99.90;;;;;;6124383;23;20014;-80
2024/02/17 02:14:20;;;;;;;2.45;0.85;;;7.90;99.90;;;;;;6153417;23;20017;-81
2024/02/17 02:16:49;;;;;;;0.52;0.50;;;8.00;99.90;;;;;;6100068;23;20022;-80
2024/02/17 02:19:16;;;;;;;0.45;0.45;;;7.90;99.90;;;;;;6125489;23;20017;-81
2024/02/17 02:21:43;;;;;;;0.40;0.40;;;8.00;99.90;;;;;;6126126;23;20021;-80
2024/02/17 02:24:09;;;;;;;0.55;0.55;;;8.10;99.90;;;;;;6102938;23;20337;-81
2024/02/17 02:26:35;;;;;;;0.50;0.50;;;8.00;99.90;;;;;;6126243;23;20073;-80
2024/02/17 02:29:02;;;;;;;0.57;0.57;;;7.90;99.90;;;;;;6102157;23;20026;-81
2024/02/17 02:31:29;;;;;;;0.60;0.60;;;8.00;99.90;;;;;;6127077;23;20053;-81
2024/02/17 02:33:56;;;;;;;0.70;0.70;;;7.90;99.90;;;;;;6125346;23;20081;-81
2024/02/17 02:36:22;;;;;;;0.95;0.95;;;7.90;99.90;;;;;;6125176;23;20029;-80
2024/02/17 02:38:48;;;;;;;3.70;1.65;;;7.90;99.90;;;;;;6150867;23;20017;-80
2024/02/17 02:41:14;;;;;;;2.05;0.65;;;7.80;99.90;;;;;;6125521;23;20104;-80
2024/02/17 02:43:40;;;;;;;5.82;3.83;;;7.80;99.90;;;;;;6126710;23;20021;-80
2024/02/17 02:46:07;;;;;;;2.08;1.98;;;7.80;99.90;;;;;;6129153;23;20093;-80
2024/02/17 02:48:32;;;;;;;0.57;0.57;;;7.70;99.90;;;;;;6128072;23;20045;-81
2024/02/17 02:50:59;;;;;;;0.50;0.50;;;7.70;99.90;;;;;;6153882;23;20036;-81
2024/02/17 02:53:24;;;;;;;;;;;7.70;99.90;;;;;;6127962;23;20049;-81
2024/02/17 02:55:51;;;;;;;0.93;0.93;;;7.70;99.90;;;;;;6103335;23;19923;-81
2024/02/17 02:58:17;;;;;;;0.88;0.88;;;7.60;99.90;;;;;;6154509;23;20013;-80
2024/02/17 03:00:42;;;;;;;0.52;0.52;;;7.60;99.90;;;;;;6155223;23;20471;-81
2024/02/17 03:03:09;;;;;;;0.63;0.63;;;7.60;99.90;;;;;;6128252;23;20021;-81
2024/02/17 03:05:35;;;;;;;0.50;0.50;;;7.60;99.90;;;;;;6079167;23;20088;-81
2024/02/17 03:08:03;;;;;;;1.02;1.02;;;7.60;99.90;;;;;;6152593;23;20057;-81
2024/02/17 03:10:28;;;;;;;0.43;0.43;;;7.50;99.90;;;;;;6126422;23;20321;-81
2024/02/17 03:12:56;;;;;;;1.20;0.93;;;7.50;99.90;;;;;;6153019;23;20021;-81
2024/02/17 03:15:21;;;;;;;0.50;0.50;;;7.50;99.90;;;;;;6101221;23;20049;-81
2024/02/17 03:17:50;;;;;;;0.60;0.60;;;7.50;99.90;;;;;;6152783;23;20020;-81
2024/02/17 03:20:15;;;;;;;0.85;0.85;;;7.50;99.90;;;;;;6153715;23;20014;-80
2024/02/17 03:22:42;;;;;;;0.73;0.73;;;7.50;99.90;;;;;;6102539;23;20020;-81
2024/02/17 03:25:08;;;;;;;0.50;0.50;;;7.70;99.90;;;;;;6126290;23;20032;-81
2024/02/17 03:27:34;;;;;;;0.68;0.68;;;7.50;99.90;;;;;;6126859;23;20459;-80
2024/02/17 03:30:04;;;;;;;;;;;7.50;99.90;;;;;;6128000;23;20014;-81
2024/02/17 03:32:33;;;;;;;0.70;0.70;;;7.50;99.90;;;;;;6127528;23;19920;-80
2024/02/17 03:35:00;;;;;;;1.70;1.23;;;7.50;99.90;;;;;;6126900;23;20017;-81
2024/02/17 03:37:26;;;;;;;0.50;0.50;;;7.50;99.90;;;;;;6103679;23;20072;-81
2024/02/17 03:39:53;;;;;;;0.45;0.45;;;7.50;99.90;;;;;;6128220;23;20021;-81
2024/02/17 03:42:19;;;;;;;0.40;0.40;;;7.50;99.90;;;;;;6129231;23;20021;-80
2024/02/17 03:44:45;;;;;;;1.10;0.80;;;7.50;99.90;;;;;;6128983;23;20084;-81
2024/02/17 03:47:13;;;;;;;3.38;1.10;;;7.50;99.90;;;;;;6128304;23;20072;-80
2024/02/17 03:49:39;;;;;;;0.40;0.40;;;7.50;99.90;;;;;;6128745;23;20024;-80
2024/02/17 03:52:07;;;;;;;0.50;0.50;;;7.50;99.90;;;;;;6128585;23;20471;-80
2024/02/17 03:54:33;;;;;;;0.82;0.82;;;7.50;99.90;;;;;;6129713;23;20031;-82
2024/02/17 03:56:59;;;;;;;0.40;0.40;;;7.40;99.90;;;;;;6128111;23;20014;-81
2024/02/17 03:59:24;;;;;;;0.70;0.70;;;7.50;99.90;;;;;;6128586;23;20459;-80
2024/02/17 04:01:59;;;;;;;1.35;1.05;;;7.40;99.90;;;;;;6156174;23;20017;-81
2024/02/17 04:04:25;;;;;;;0.40;0.40;;;7.50;99.90;;;;;;6082242;23;20098;-81
2024/02/17 04:06:50;;;;;;;0.85;0.73;;;7.50;99.90;;;;;;6130971;23;20420;-81
2024/02/17 04:09:16;;;;;;;2.15;1.00;;;7.70;99.90;;;;;;6128479;23;20498;-79
2024/02/17 04:11:42;;;;;;;0.50;0.50;;;7.50;99.90;;;;;;6129435;23;20013;-78
2024/02/17 04:14:08;;;;;;;2.65;1.10;;;7.40;99.90;;;;;;6153852;23;20076;-79
2024/02/17 04:16:34;;;;;;;1.45;1.15;;;7.40;99.90;;;;;;6129023;23;20024;-80
2024/02/17 04:19:00;;;;;;;0.50;0.50;;;7.40;99.90;;;;;;6128805;23;20025;-80
2024/02/17 04:21:26;;;;;;;0.98;0.98;;;7.50;99.90;;;;;;6156028;23;20060;-80
2024/02/17 04:23:52;;;;;;;;;;;7.40;99.90;;;;;;6105129;23;20080;-80
2024/02/17 04:26:18;;;;;;;0.50;0.50;;;7.40;99.90;;;;;;6103910;23;19913;-80
2024/02/17 04:28:43;;;;;;;0.60;0.60;;;7.40;99.90;;;;;;6128056;23;20132;-80
2024/02/17 04:31:09;;;;;;;0.50;0.50;;;7.40;99.90;;;;;;6129005;23;20022;-80
2024/02/17 04:33:39;;;;;;;0.95;0.77;;;7.40;99.90;;;;;;6105386;23;20047;-80
2024/02/17 04:36:08;;;;;;;0.40;0.40;;;7.40;99.90;;;;;;6154607;23;20047;-80
2024/02/17 04:38:35;;;;;;;0.45;0.45;;;7.30;99.90;;;;;;6104418;23;20021;-80
2024/02/17 04:41:02;;;;;;;0.88;0.88;;;7.30;99.90;;;;;;6102601;23;20013;-80
2024/02/17 04:43:27;;;;;;;0.60;0.50;;;7.30;99.90;;;;;;6126735;23;20479;-81
2024/02/17 04:45:53;;;;;;;0.57;0.57;;;7.30;99.90;;;;;;6103799;23;20024;-80
2024/02/17 04:48:19;;;;;;;0.60;0.60;;;7.20;99.90;;;;;;6103717;23;20009;-81
2024/02/17 04:50:45;;;;;;;0.40;0.40;;;7.20;99.90;;;;;;6129946;23;20035;-82
2024/02/17 04:53:10;;;;;;;0.50;0.50;;;7.10;99.90;;;;;;6108016;23;20320;-83
2024/02/17 04:55:36;;;;;;;0.50;0.50;;;7.10;99.90;;;;;;6132652;23;20352;-82
2024/02/17 04:58:02;;;;;;;0.50;0.50;;;7.10;99.90;;;;;;6132825;23;20478;-82
2024/02/17 05:00:28;;;;;;;;;;;7.00;99.90;;;;;;6131383;23;20103;-81
2024/02/17 05:02:54;;;;;;;0.50;0.50;;;7.00;99.90;;;;;;6159158;23;19913;-83
2024/02/17 05:05:19;;;;;;;0.50;0.50;;;6.90;99.90;;;;;;6107011;23;20045;-82
2024/02/17 05:07:46;;;;;;;0.50;0.50;;;6.90;99.90;;;;;;6083811;23;20056;-83
2024/02/17 05:10:12;;;;;;;0.63;0.63;;;6.90;99.90;;;;;;6104679;23;20028;-81
2024/02/17 05:12:39;;;;;;;;;;;6.80;99.90;;;;;;6156595;23;20017;-81
2024/02/17 05:15:05;;;;;;;0.50;0.50;;;6.70;99.90;;;;;;6130243;23;19928;-79
2024/02/17 05:17:31;;;;;;;;;;;6.70;99.90;;;;;;6127508;23;20045;-80
2024/02/17 05:19:56;;;;;;;0.60;0.60;;;6.70;99.90;;;;;;6127731;23;19916;-79
2024/02/17 05:22:22;;;;;;;0.55;0.55;;;6.60;99.90;;;;;;6079284;23;20407;-79
2024/02/17 05:24:48;;;;;;;0.40;0.40;;;6.60;99.90;;;;;;6102441;23;20020;-79
2024/02/17 05:27:14;;;;;;;4.65;0.98;;;6.50;99.90;;;;;;6126123;23;20092;-80
2024/02/17 05:29:40;;;;;;;0.60;0.60;;;6.60;99.90;;;;;;6102699;23;20107;-80
2024/02/17 05:32:07;;;;;;;0.57;0.57;;;6.50;99.90;;;;;;6127547;23;20493;-80
2024/02/17 05:34:33;;;;;;;0.57;0.57;;;6.50;99.90;;;;;;6153134;23;20354;-79
2024/02/17 05:37:00;;;;;;;0.52;0.52;;;6.40;99.90;;;;;;6126444;23;20020;-80
2024/02/17 05:39:25;;;;;;;0.40;0.40;;;6.40;99.90;;;;;;6127007;23;20024;-79
2024/02/17 05:41:52;;;;;;;0.60;0.60;;;6.40;99.90;;;;;;6127098;23;20021;-80
2024/02/17 05:44:18;;;;;;;0.57;0.57;;;6.50;99.90;;;;;;6127278;23;20060;-79
2024/02/17 05:46:44;;;;;;;0.50;0.50;;;6.50;99.90;;;;;;6126917;23;20017;-80
2024/02/17 05:49:10;;;;;;;0.60;0.60;;;6.50;99.90;;;;;;6125984;23;20041;-80
2024/02/17 05:51:36;;;;;;;0.57;0.57;;;6.50;99.90;;;;;;6102577;23;20045;-78
2024/02/17 05:54:02;;;;;;;0.52;0.52;;;6.50;99.90;;;;;;6078211;23;20025;-81
2024/02/17 05:56:27;;;;;;;0.50;0.50;;;6.50;99.90;;;;;;6125474;23;20021;-80
2024/02/17 05:58:54;;;;;;;0.47;0.47;;;6.50;99.90;;;;;;6127417;23;20020;-81
2024/02/17 06:01:20;;;;;;;0.60;0.60;;;6.50;99.90;;;;;;6103795;23;20024;-81
2024/02/17 06:03:45;;;;;;;0.98;0.98;;;6.50;99.90;;;;;;6104229;23;20013;-80
2024/02/17 06:06:11;;;;;;;0.40;0.40;;;6.50;99.90;;;;;;6103181;23;20017;-80
2024/02/17 06:08:37;;;;;;;0.73;0.73;;;6.40;99.90;;;;;;6102254;23;20100;-81
2024/02/17 06:11:02;;;;;;;0.60;0.60;;;6.40;99.90;;;;;;6107291;23;20020;-79
2024/02/17 06:13:28;;;;;;;0.55;0.55;;;6.50;99.90;;;;;;6155004;23;20013;-79
2024/02/17 06:15:55;;;;;;;0.60;0.60;;;6.50;99.90;;;;;;6129842;23;20028;-79
2024/02/17 06:21:11;;;;;;;0.85;0.85;;;6.80;99.90;;;;;;6155228;23;20022;-79
2024/02/17 06:23:47;;;;;;;0.60;0.60;;;6.40;99.90;;;;;;6127587;23;20045;-78
2024/02/17 06:26:29;;;;;;;0.55;0.55;;;6.50;99.90;;;;;;6109760;23;20022;-83
2024/02/17 06:28:56;;;;;;;0.80;0.80;;;6.40;99.90;;;;;;6132616;23;20025;-82
2024/02/17 06:31:23;;;;;;;0.43;0.43;;;6.40;99.90;;;;;;6108395;23;20024;-82
2024/02/17 06:33:49;;;;;;;0.55;0.55;;;6.40;99.90;;;;;;6132339;23;20088;-81
2024/02/17 06:36:15;;;;;;;;;;;6.50;99.90;;;;;;6107422;23;20064;-79
2024/02/17 06:38:41;;;;;;;0.50;0.50;;;6.40;99.90;;;;;;6132823;23;19920;-81
2024/02/17 06:41:09;;;;;;;0.50;0.50;;;6.40;99.90;;;;;;6157453;23;20014;-82
2024/02/17 06:43:35;;;;;;;0.50;0.50;;;6.40;99.90;;;;;;6134357;23;20009;-81
2024/02/17 06:46:01;;;;;;;0.50;0.50;;;6.30;99.90;;;;;;6161705;23;20017;-81
2024/02/17 06:48:27;;;;;;;;;;;6.30;99.90;;;;;;6136222;23;20055;-82
2024/02/17 06:50:54;;;;;;;0.60;0.60;;;6.20;99.90;;;;;;6112254;23;20318;-83
2024/02/17 06:53:20;;;;;;;0.43;0.43;;;6.50;99.90;;;;;;6133563;23;20329;-82
2024/02/17 06:55:46;;;;;;;0.50;0.50;;;6.10;99.90;;;;;;6159073;23;20018;-81
2024/02/17 06:58:12;;;;;;;0.50;0.50;;;6.10;99.90;;;;;;6109627;23;20132;-82
2024/02/17 07:00:38;;;;;;;0.60;0.60;;;6.00;99.90;;;;;;6159464;23;20017;-84
2024/02/17 07:03:04;;;;;;;0.45;0.45;;;6.00;99.90;;;;;;6132729;23;20025;-82
2024/02/17 07:05:34;;;;;;;0.50;0.50;;;6.00;99.90;;;;;;6132807;23;20028;-82
2024/02/17 07:08:00;;;;;;;0.60;0.60;;;6.00;99.90;;;;;;6129885;23;20435;-80
2024/02/17 07:10:25;;;;;;;;;;;6.00;99.90;;;;;;6132784;23;20074;-81
2024/02/17 07:12:51;;;;;;;0.40;0.40;;;6.00;99.90;;;;;;6134323;23;19917;-82
2024/02/17 07:15:17;;;;;;;0.60;0.60;;;6.00;99.90;;;;;;6135798;23;20067;-82
2024/02/17 07:17:42;;;;;;;0.45;0.45;;;6.00;99.90;;;;;;6159594;23;20029;-82
2024/02/17 07:20:09;;;;;;;0.70;0.70;;;6.00;99.90;;;;;;6133035;23;20021;-81
2024/02/17 07:22:36;;;;;;;0.60;0.60;;;6.00;99.90;;;;;;6160471;23;20068;-81
2024/02/17 07:25:02;;;;;;;0.50;0.50;;;6.00;99.90;;;;;;6157755;23;20017;-80
2024/02/17 07:27:28;;;;;;;0.50;0.50;;;6.00;99.90;;;;;;6159630;23;20030;-81
2024/02/17 07:29:54;;;;;;;0.65;0.65;;;6.00;99.90;;;;;;6135679;23;20025;-81
2024/02/17 07:32:24;;;;;;;0.50;0.50;;;6.00;99.90;;;;;;6159985;23;20241;-80
2024/02/17 07:34:53;;;;;;;0.60;0.60;;;6.10;99.90;;;;;;6156052;23;20017;-81
2024/02/17 07:37:19;;;;;;;0.50;0.50;;;6.10;99.90;;;;;;6108224;23;20084;-81
2024/02/17 07:39:45;;;;;;;0.63;0.63;;;6.00;99.90;;;;;;6128620;23;20017;-80
2024/02/17 07:42:11;;;;;;;;;;;6.20;99.90;;;;;;6128528;23;20679;-79
2024/02/17 07:44:36;;;;;;;0.60;0.60;;;6.10;99.90;;;;;;6133440;23;19916;-82
2024/02/17 07:47:03;;;;;;;0.60;0.60;;;6.10;99.90;;;;;;6104837;23;20100;-80
2024/02/17 07:49:31;;;;;;;0.55;0.55;;;6.20;99.90;;;;;;6131984;23;20017;-80
2024/02/17 07:51:57;;;;;;;0.52;0.52;;;6.20;99.90;;;;;;6133522;23;20103;-80
2024/02/17 07:54:22;;;;;;;0.50;0.50;;;6.20;99.90;;;;;;6160220;23;20021;-80
2024/02/17 07:56:48;;;;;;;0.60;0.60;;;6.20;99.90;;;;;;6081489;23;20104;-81
2024/02/17 07:59:14;;;;;;;0.50;0.50;;;6.20;99.90;;;;;;6132179;23;20056;-79
2024/02/17 08:01:40;;;;;;;0.50;0.50;;;6.30;99.90;;;;;;6156997;23;20037;-81
2024/02/17 08:04:05;;;;;;;0.50;0.50;;;6.30;99.90;;;;;;6103108;23;20021;-81
2024/02/17 08:06:31;;;;;;;1.27;1.27;;;6.30;99.90;;;;;;6156292;23;20095;-80
2024/02/17 08:08:57;;;;;;;0.40;0.40;;;6.20;99.90;;;;;;6157858;23;20076;-80
2024/02/17 08:11:22;;;;;;;0.40;0.40;;;6.20;99.90;;;;;;6130984;23;20444;-80
2024/02/17 08:13:48;;;;;;;0.60;0.60;;;6.20;99.90;;;;;;6130520;23;20333;-80
2024/02/17 08:16:14;;;;;;;0.60;0.60;;;6.00;99.90;;;;;;6156395;23;20439;-80
2024/02/17 08:18:42;;;;;;;0.50;0.50;;;6.00;99.90;;;;;;6130261;23;20313;-81
2024/02/17 08:21:09;;;;;;;0.50;0.50;;;5.90;99.90;;;;;;6154189;23;20090;-79
2024/02/17 08:23:34;;;;;;;0.60;0.60;;;5.90;99.90;;;;;;6130331;23;20032;-80
2024/02/17 08:26:00;;;;;;;0.50;0.50;;;5.90;99.90;;;;;;6155337;23;20104;-79
2024/02/17 08:28:27;;;;;;;0.50;0.50;;;5.90;99.90;;;;;;6131517;23;20076;-82
2024/02/17 08:30:53;;;;;;;0.50;0.50;;;6.00;99.90;;;;;;6132499;23;20024;-81
2024/02/17 08:33:19;;;;;;;0.52;0.52;;;6.00;99.90;;;;;;6107486;23;20014;-81
2024/02/17 08:35:45;;;;;;;0.52;0.52;;;6.10;99.90;;;;;;6132744;23;20076;-79
2024/02/17 08:38:13;;;;;;;0.88;0.88;;;6.00;99.90;;;;;;6155677;23;20040;-80
2024/02/17 08:40:39;;;;;;;0.50;0.50;;;6.10;99.90;;;;;;6104553;23;20018;-80
2024/02/17 08:43:05;;;;;;;0.40;0.40;;;6.10;99.90;;;;;;6106220;23;20087;-79
2024/02/17 08:45:31;;;;;;;;;;;6.20;99.90;;;;;;6158449;23;20115;-77
2024/02/17 08:47:57;;;;;;;0.40;0.40;;;6.30;99.90;;;;;;6153825;23;19916;-79
2024/02/17 08:50:22;;;;;;;0.57;0.57;;;6.70;99.90;;;;;;6129169;23;20013;-79
2024/02/17 08:52:48;;;;;;;0.60;0.60;;;6.40;99.90;;;;;;6128533;23;20020;-79
2024/02/17 08:55:14;;;;;;;0.50;0.50;;;6.40;99.90;;;;;;6127751;23;20092;-79
2024/02/17 08:57:40;;;;;;;0.55;0.55;;;6.60;99.90;;;;;;6127320;23;20044;-79
2024/02/17 09:00:06;;;;;;;0.50;0.50;;;6.70;99.90;;;;;;6128188;23;20018;-79
2024/02/17 09:02:33;;;;;;;0.50;0.50;;;6.60;99.90;;;;;;6128243;23;20438;-80
2024/02/17 09:04:59;;;;;;;0.50;0.50;;;6.70;99.90;;;;;;6128678;23;20451;-79
2024/02/17 09:07:27;;;;;;;0.50;0.50;;;6.80;99.90;;;;;;6154502;23;20032;-79
2024/02/17 09:09:53;;;;;;;0.57;0.57;;;6.80;99.90;;;;;;6127985;23;20017;-80
2024/02/17 09:12:19;;;;;;;0.50;0.50;;;6.90;99.90;;;;;;6127304;23;20017;-79
2024/02/17 09:14:45;;;;;;;0.40;0.40;;;6.90;99.90;;;;;;6154095;23;20021;-80
2024/02/17 09:17:11;;;;;;;0.50;0.50;;;7.00;99.90;;;;;;6155359;23;20017;-79
2024/02/17 09:19:37;;;;;;;0.50;0.50;;;7.10;99.90;;;;;;6129121;23;20021;-78
2024/02/17 09:22:03;;;;;;;0.82;0.82;;;7.10;99.90;;;;;;6155180;23;20025;-80
2024/02/17 09:24:31;;;;;;;0.43;0.43;;;7.10;99.90;;;;;;6156489;23;20028;-80
2024/02/17 09:27:00;;;;;;;0.40;0.40;;;7.20;99.90;;;;;;6154279;23;20017;-80
2024/02/17 09:29:29;;;;;;;0.50;0.50;;;7.20;99.90;;;;;;6154957;23;20360;-78
2024/02/17 09:31:55;;;;;;;0.40;0.40;;;7.20;99.90;;;;;;6154972;23;20009;-79
2024/02/17 09:34:22;;;;;;;0.50;0.50;;;7.20;99.90;;;;;;6130104;23;20080;-80
2024/02/17 09:36:48;;;;;;;0.47;0.47;;;7.20;99.90;;;;;;6128955;23;20101;-81
2024/02/17 09:39:16;;;;;;;0.60;0.60;;;7.30;99.90;;;;;;6106478;23;20088;-78
2024/02/17 09:41:42;;;;;;;0.50;0.50;;;7.50;99.90;;;;;;6102031;23;20121;-80
2024/02/17 09:44:11;;;;;;;0.50;0.50;;;7.40;99.90;;;;;;6155886;23;20076;-79
2024/02/17 09:46:37;;;;;;;0.40;0.40;;;7.50;99.90;;;;;;6129451;23;20530;-78
2024/02/17 09:49:06;;;;;;;0.43;0.43;;;7.50;99.90;;;;;;6156572;23;20036;-79
2024/02/17 09:51:33;;;;;;;0.30;0.30;;;7.50;99.90;;;;;;6130347;23;20025;-78
2024/02/17 09:53:59;;;;;;;0.40;0.40;;;7.50;99.90;;;;;;6157099;23;20073;-78
2024/02/17 09:56:26;;;;;;;0.50;0.50;;;7.60;99.90;;;;;;6128591;23;20020;-79
2024/02/17 09:58:52;;;;;;;0.40;0.40;;;7.60;99.90;;;;;;6155622;23;20026;-79
2024/02/17 10:01:19;;;;;;;0.40;0.40;;;7.70;99.90;;;;;;6131105;23;20009;-79
2024/02/17 10:03:52;;;;;;;0.30;0.30;;;7.50;99.90;;;;;;6130604;23;20024;-80
2024/02/17 10:06:18;;;;;;;0.50;0.50;;;7.50;99.90;;;;;;6156750;23;20029;-79
2024/02/17 10:08:46;;;;;;;0.47;0.47;;;7.40;99.90;;;;;;6156604;23;20439;-80
2024/02/17 10:11:12;;;;;;;0.35;0.35;;;7.40;99.90;;;;;;6155280;23;20010;-78
2024/02/17 10:13:40;;;;;;;0.40;0.40;;;7.50;99.90;;;;;;6156363;23;20013;-79
2024/02/17 10:16:15;;;;;;;0.55;0.55;;;7.60;99.90;;;;;;6129708;23;20025;-79
2024/02/17 10:18:43;;;;;;;0.40;0.40;;;7.70;99.90;;;;;;6131310;23;20340;-80
2024/02/17 10:21:10;;;;;;;0.40;0.40;;;7.80;99.90;;;;;;6129880;23;20017;-80
2024/02/17 10:23:36;;;;;;;0.50;0.50;;;7.80;99.90;;;;;;6105138;23;20024;-80
2024/02/17 10:26:02;;;;;;;0.50;0.50;;;7.80;99.90;;;;;;6152391;23;20021;-79
2024/02/17 10:28:31;;;;;;;0.40;0.40;;;7.80;99.90;;;;;;6128141;23;20009;-79
2024/02/17 10:30:58;;;;;;;0.43;0.43;;;7.80;99.90;;;;;;6104741;23;20092;-80
2024/02/17 10:33:27;;;;;;;0.40;0.40;;;7.80;99.90;;;;;;6154430;23;20032;-79
2024/02/17 10:35:56;;;;;;;0.50;0.50;;;7.90;99.90;;;;;;6155335;23;20021;-80
2024/02/17 10:38:24;;;;;;;0.45;0.45;;;8.00;99.90;;;;;;6157984;23;20017;-80
2024/02/17 10:40:51;;;;;;;0.40;0.40;;;8.20;99.90;;;;;;6132532;23;20021;-81
2024/02/17 10:43:18;;;;;;;0.45;0.45;;;8.50;99.90;;;;;;6160058;23;20405;-81
2024/02/17 10:45:44;;;;;;;0.40;0.40;;;8.70;99.90;;;;;;6109808;23;20088;-82
2024/02/17 10:48:10;;;;;;;;;;;8.80;99.90;;;;;;6132251;23;20017;-82
2024/02/17 10:50:41;;;;;;;0.40;0.40;;;8.90;99.90;;;;;;6161590;23;20055;-81
2024/02/17 10:53:39;;;;;;;0.40;0.40;;;8.90;99.90;;;;;;6112870;23;20028;-82
2024/02/17 10:56:13;;;;;;;0.28;0.28;;;8.90;99.90;;;;;;6097326;23;20017;-81
2024/02/17 10:58:40;;;;;;;0.40;0.40;;;8.90;99.90;;;;;;6163213;23;20014;-83
2024/02/17 11:01:08;;;;;;;0.45;0.45;;;8.80;99.90;;;;;;6135330;23;20013;-80
2024/02/17 11:03:37;;;;;;;0.50;0.50;;;8.60;99.90;;;;;;6162869;23;20037;-82
2024/02/17 11:06:06;;;;;;;0.50;0.50;;;8.50;99.90;;;;;;6163449;23;20088;-81
2024/02/17 11:08:35;;;;;;;0.55;0.55;;;8.40;99.90;;;;;;6163431;23;20092;-81
2024/02/17 11:11:28;;;;;;;0.40;0.40;;;8.40;99.90;;;;;;6137370;23;20014;-81
2024/02/17 11:13:56;;;;;;;0.47;0.47;;;8.30;99.90;;;;;;6115037;23;20017;-85
2024/02/17 11:16:23;;;;;;;0.45;0.45;;;8.20;99.90;;;;;;6142143;23;20022;-89
2024/02/17 11:18:51;;;;;;;0.40;0.40;;;8.20;99.90;;;;;;6119052;23;20053;-86
2024/02/17 11:21:44;;;;;;;0.70;0.70;;;8.10;99.90;;;;;;6091440;23;20018;-86
2024/02/17 11:24:12;;;;;;;0.60;0.60;;;6.70;99.90;;;;;;6114444;23;20049;-87
2024/02/17 11:26:38;;;;;;;0.40;0.40;;;8.30;99.90;;;;;;6116607;23;20017;-85
2024/02/17 11:29:05;;;;;;;0.47;0.47;;;8.50;99.90;;;;;;6092308;23;20065;-85
2024/02/17 11:31:31;;;;;;;0.40;0.40;;;8.60;99.90;;;;;;6069247;23;20019;-85
2024/02/17 11:34:02;;;;;;;;;;;8.90;99.90;;;;;;6118005;23;20018;-86
2024/02/17 11:36:31;;;;;;;1.20;0.80;;;8.80;99.90;;;;;;6117028;23;19913;-85
2024/02/17 11:39:01;;;;;;;0.45;0.45;;;8.80;99.90;;;;;;6115418;23;20017;-85
2024/02/17 11:43:57;;;;;;;;;;;8.80;99.90;;;;;;6149342;23;20024;-85
2024/02/17 11:46:23;;;;;;;0.40;0.40;;;8.70;99.90;;;;;;6170648;23;19916;-86
2024/02/17 11:48:49;;;;;;;0.45;0.45;;;8.70;99.90;;;;;;6146763;23;20068;-86
2024/02/17 11:51:18;;;;;;;0.50;0.50;;;7.90;99.90;;;;;;6120631;23;20021;-84
2024/02/17 11:53:47;;;;;;;0.30;0.30;;;8.80;99.90;;;;;;6145919;23;20021;-84
2024/02/17 11:56:15;;;;;;;0.30;0.30;;;7.50;99.90;;;;;;6121657;23;20016;-86
2024/02/17 11:58:42;;;;;;;1.08;1.08;;;9.00;99.90;;;;;;6123163;23;20020;-85
2024/02/17 12:01:10;;;;;;;0.40;0.40;;;9.20;99.90;;;;;;6121312;23;20016;-86
2024/02/17 12:03:36;;;;;;;0.40;0.40;;;9.10;99.90;;;;;;6146419;23;20451;-85
2024/02/17 12:06:09;;;;;;;0.32;0.32;;;9.50;99.90;;;;;;6121999;23;20048;-86
2024/02/17 12:08:36;;;;;;;0.40;0.40;;;9.50;99.90;;;;;;6123044;23;20017;-86
2024/02/17 12:11:04;;;;;;;1.30;1.25;;;9.50;99.90;;;;;;6142722;23;20024;-85
2024/02/17 12:13:34;;;;;;;0.30;0.30;;;9.50;99.90;;;;;;6145051;23;20013;-84
2024/02/17 12:16:05;;;;;;;0.30;0.30;;;8.20;99.90;;;;;;6144578;23;20028;-85
2024/02/17 12:18:32;;;;;;;2.28;1.92;;;9.70;99.90;;;;;;6144701;23;20020;-84
2024/02/17 12:21:18;;;;;;;0.60;0.60;;;9.50;99.90;;;;;;6144171;23;20020;-83
2024/02/17 12:23:44;;;;;;;0.38;0.38;;;9.70;99.90;;;;;;6143063;23;20056;-81
2024/02/17 12:44:12;;;;;;;0.40;0.40;;;9.40;99.90;;;;;;6184791;23;20035;-83
2024/02/17 12:46:39;;;;;;;0.40;0.40;;;9.50;99.90;;;;;;6120779;23;20021;-83
2024/02/17 12:49:08;;;;;;;0.30;0.30;;;9.70;99.90;;;;;;6141734;23;20172;-85
2024/02/17 12:51:38;;;;;;;0.30;0.30;;;9.50;99.90;;;;;;6118349;23;20017;-84
2024/02/17 12:54:10;;;;;;;0.35;0.35;;;9.40;99.90;;;;;;6118410;23;20013;-85
2024/02/17 12:56:38;;;;;;;0.40;0.40;;;9.00;99.90;;;;;;6141998;23;20024;-85
2024/02/17 12:59:04;;;;;;;0.50;0.50;;;9.60;99.90;;;;;;6120557;23;20013;-83
2024/02/17 13:01:30;;;;;;;0.50;0.50;;;9.70;99.90;;;;;;6142898;23;20258;-85
2024/02/17 13:04:00;;;;;;;0.30;0.30;;;10.00;99.90;;;;;;6143667;23;20013;-83
2024/02/17 13:06:37;;;;;;;0.40;0.40;;;10.00;99.90;;;;;;6143118;23;20027;-82
2024/02/17 13:11:29;;;;;;;0.40;0.40;;;10.00;99.90;;;;;;6170855;23;20025;-82
2024/02/17 13:13:59;;;;;;;0.52;0.52;;;10.10;99.90;;;;;;6144729;23;20021;-83
2024/02/17 13:16:25;;;;;;;0.30;0.30;;;10.20;99.90;;;;;;6144942;23;20346;-85
2024/02/17 13:18:54;;;;;;;0.20;0.20;;;10.20;99.90;;;;;;6123645;23;20017;-82
2024/02/17 13:21:20;;;;;;;0.40;0.40;;;10.40;99.90;;;;;;6121545;23;20017;-83
2024/02/17 13:23:46;;;;;;;;;;;10.80;99.90;;;;;;6143820;23;20021;-82
2024/02/17 13:26:15;;;;;;;0.43;0.43;;;10.80;99.90;;;;;;6141515;23;19920;-85
2024/02/17 13:28:44;;;;;;;0.30;0.30;;;10.50;99.90;;;;;;6118626;23;20017;-85